createdAt,value
2018-12-13T00:00:20.766Z,2.30
2018-12-13T00:02:49.038Z,2.20
2018-12-13T00:05:14.673Z,2.30
2018-12-13T00:07:41.647Z,2.20
2018-12-13T00:10:08.587Z,2.20
2018-12-13T00:12:35.533Z,2.20
2018-12-13T00:15:02.501Z,2.20
2018-12-13T00:17:29.476Z,2.40
2018-12-13T00:19:56.421Z,2.40
2018-12-13T00:22:23.371Z,2.30
2018-12-13T00:24:50.348Z,2.60
2018-12-13T00:27:17.765Z,2.40
2018-12-13T00:29:44.723Z,2.50
2018-12-13T00:32:11.665Z,2.50
2018-12-13T00:34:38.611Z,2.40
2018-12-13T00:37:05.569Z,2.20
2018-12-13T00:39:32.509Z,2.20
2018-12-13T00:41:59.444Z,2.20
2018-12-13T00:44:26.397Z,2.20
2018-12-13T00:46:53.357Z,2.20
2018-12-13T00:49:20.311Z,2.20
2018-12-13T00:51:47.274Z,2.10
2018-12-13T00:54:14.227Z,2.10
2018-12-13T00:56:41.169Z,2.10
2018-12-13T00:59:08.111Z,2.10
2018-12-13T01:01:35.064Z,2.10
2018-12-13T01:04:02.026Z,2.10
2018-12-13T01:06:29.001Z,2.10
2018-12-13T01:08:55.945Z,2.00
2018-12-13T01:11:22.890Z,2.10
2018-12-13T01:13:49.836Z,2.10
2018-12-13T01:16:22.837Z,2.00
2018-12-13T01:18:49.952Z,2.10
2018-12-13T01:21:20.681Z,2.10
2018-12-13T01:23:43.888Z,2.10
2018-12-13T01:26:10.820Z,2.20
2018-12-13T01:28:38.109Z,2.10
2018-12-13T01:31:05.028Z,2.00
2018-12-13T01:33:31.977Z,1.90
2018-12-13T01:35:58.925Z,1.80
2018-12-13T01:38:25.878Z,1.80
2018-12-13T01:40:52.868Z,1.80
2018-12-13T01:43:19.837Z,1.80
2018-12-13T01:45:46.791Z,1.70
2018-12-13T01:48:13.739Z,1.80
2018-12-13T01:50:40.716Z,1.80
2018-12-13T01:53:07.668Z,1.80
2018-12-13T01:55:34.627Z,1.80
2018-12-13T01:58:01.588Z,1.70
2018-12-13T02:00:28.528Z,1.70
2018-12-13T02:02:55.467Z,1.80
2018-12-13T02:05:22.433Z,1.70
2018-12-13T02:07:49.365Z,1.80
2018-12-13T02:10:16.301Z,1.80
2018-12-13T02:12:43.259Z,2.00
2018-12-13T02:15:10.187Z,1.80
2018-12-13T02:17:37.157Z,1.70
2018-12-13T02:20:04.100Z,1.70
2018-12-13T02:22:31.049Z,1.70
2018-12-13T02:24:57.991Z,1.60
2018-12-13T02:27:24.949Z,1.60
2018-12-13T02:29:52.462Z,1.60
2018-12-13T02:32:19.403Z,1.60
2018-12-13T02:34:46.373Z,1.60
2018-12-13T02:37:13.309Z,1.40
2018-12-13T02:39:40.251Z,1.60
2018-12-13T02:42:07.208Z,1.70
2018-12-13T02:44:34.144Z,1.70
2018-12-13T02:47:01.079Z,1.50
2018-12-13T02:49:28.048Z,1.50
2018-12-13T02:51:54.987Z,1.50
2018-12-13T02:54:21.931Z,1.50
2018-12-13T02:56:48.899Z,1.50
2018-12-13T02:59:15.833Z,1.50
2018-12-13T03:01:42.789Z,1.50
2018-12-13T03:04:09.744Z,1.50
2018-12-13T03:06:36.720Z,1.30
2018-12-13T03:09:05.779Z,1.50
2018-12-13T03:11:32.740Z,1.40
2018-12-13T03:13:59.684Z,1.50
2018-12-13T03:16:26.652Z,1.50
2018-12-13T03:18:53.629Z,1.50
2018-12-13T03:21:20.586Z,1.50
2018-12-13T03:23:47.519Z,1.50
2018-12-13T03:26:14.465Z,1.50
2018-12-13T03:28:41.387Z,1.50
2018-12-13T03:31:08.712Z,1.50
2018-12-13T03:33:35.688Z,1.50
2018-12-13T03:36:02.635Z,1.50
2018-12-13T03:38:29.656Z,1.60
2018-12-13T03:40:56.541Z,1.60
2018-12-13T03:43:23.512Z,1.60
2018-12-13T03:45:50.498Z,1.60
2018-12-13T03:48:17.463Z,1.60
2018-12-13T03:50:44.412Z,1.70
2018-12-13T03:53:11.341Z,1.70
2018-12-13T03:55:38.316Z,1.80
2018-12-13T03:58:05.257Z,1.80
2018-12-13T04:00:32.200Z,1.90
2018-12-13T04:02:59.151Z,1.80
2018-12-13T04:05:26.100Z,1.60
2018-12-13T04:07:53.039Z,1.60
2018-12-13T04:10:20.009Z,1.70
2018-12-13T04:12:46.947Z,1.60
2018-12-13T04:15:13.885Z,1.70
2018-12-13T04:17:40.961Z,1.80
2018-12-13T04:20:07.904Z,1.60
2018-12-13T04:22:34.840Z,1.60
2018-12-13T04:25:01.822Z,1.60
2018-12-13T04:27:28.759Z,1.70
2018-12-13T04:29:55.696Z,1.70
2018-12-13T04:32:23.055Z,1.90
2018-12-13T04:34:49.985Z,2.00
2018-12-13T04:37:16.980Z,2.10
2018-12-13T04:39:43.920Z,2.10
2018-12-13T04:42:10.860Z,2.00
2018-12-13T04:44:37.999Z,2.00
2018-12-13T04:47:04.751Z,2.00
2018-12-13T04:49:31.699Z,2.00
2018-12-13T04:51:58.755Z,1.90
2018-12-13T04:54:25.635Z,1.90
2018-12-13T04:56:52.583Z,2.00
2018-12-13T04:59:19.535Z,2.00
2018-12-13T05:01:46.493Z,2.10
2018-12-13T05:04:13.427Z,2.10
2018-12-13T05:06:40.395Z,2.10
2018-12-13T05:09:07.704Z,2.00
2018-12-13T05:11:34.668Z,2.00
2018-12-13T05:14:01.615Z,2.00
2018-12-13T05:16:28.574Z,2.00
2018-12-13T05:18:55.521Z,2.00
2018-12-13T05:21:22.500Z,2.00
2018-12-13T05:23:49.481Z,2.10
2018-12-13T05:26:16.428Z,2.20
2018-12-13T05:28:43.380Z,2.40
2018-12-13T05:31:10.329Z,2.50
2018-12-13T05:33:37.755Z,2.60
2018-12-13T05:36:04.698Z,2.70
2018-12-13T05:38:31.665Z,2.90
2018-12-13T05:40:58.604Z,2.80
2018-12-13T05:43:25.959Z,2.80
2018-12-13T05:45:52.852Z,2.90
2018-12-13T05:48:19.785Z,2.80
2018-12-13T05:50:46.724Z,2.60
2018-12-13T05:53:13.710Z,2.70
2018-12-13T05:55:40.659Z,2.30
2018-12-13T05:58:07.610Z,2.20
2018-12-13T06:00:34.664Z,2.20
2018-12-13T06:03:01.623Z,2.10
2018-12-13T06:05:28.547Z,2.10
2018-12-13T06:07:55.516Z,1.90
2018-12-13T06:10:22.461Z,2.00
2018-12-13T06:12:49.412Z,2.00
2018-12-13T06:15:16.383Z,2.00
2018-12-13T06:17:43.659Z,1.90
2018-12-13T06:20:10.893Z,1.90
2018-12-13T06:22:37.896Z,1.90
2018-12-13T06:25:04.886Z,1.90
2018-12-13T06:27:31.850Z,1.90
2018-12-13T06:29:59.253Z,1.90
2018-12-13T06:32:25.779Z,2.10
2018-12-13T06:34:53.208Z,1.90
2018-12-13T06:37:20.180Z,1.90
2018-12-13T06:39:47.145Z,1.80
2018-12-13T06:42:14.092Z,1.90
2018-12-13T06:44:41.069Z,2.00
2018-12-13T06:47:08.091Z,1.90
2018-12-13T06:49:35.021Z,1.90
2018-12-13T06:52:01.972Z,1.90
2018-12-13T06:54:28.933Z,1.90
2018-12-13T06:56:55.881Z,1.90
2018-12-13T06:59:22.867Z,2.00
2018-12-13T07:01:49.804Z,1.90
2018-12-13T07:04:16.775Z,2.00
2018-12-13T07:06:43.739Z,1.90
2018-12-13T07:09:10.739Z,1.90
2018-12-13T07:11:37.692Z,1.90
2018-12-13T07:14:04.654Z,1.90
2018-12-13T07:16:31.600Z,1.90
2018-12-13T07:18:58.548Z,1.80
2018-12-13T07:21:25.520Z,1.80
2018-12-13T07:23:52.492Z,1.80
2018-12-13T07:26:19.457Z,1.90
2018-12-13T07:28:46.426Z,1.90
2018-12-13T07:31:13.360Z,1.90
2018-12-13T07:33:40.306Z,1.90
2018-12-13T07:36:07.632Z,1.90
2018-12-13T07:38:34.577Z,1.90
2018-12-13T07:41:01.516Z,1.80
2018-12-13T07:43:28.499Z,1.80
2018-12-13T07:45:55.447Z,1.80
2018-12-13T07:48:22.415Z,1.90
2018-12-13T07:50:49.390Z,1.90
2018-12-13T07:53:16.333Z,1.90
2018-12-13T07:55:43.325Z,2.00
2018-12-13T07:58:10.319Z,2.10
2018-12-13T08:00:37.237Z,2.00
2018-12-13T08:03:04.232Z,2.10
2018-12-13T08:05:31.235Z,2.10
2018-12-13T08:07:58.221Z,2.20
2018-12-13T08:10:25.271Z,2.20
2018-12-13T08:12:52.237Z,2.30
2018-12-13T08:15:19.201Z,2.20
2018-12-13T08:17:46.698Z,2.40
2018-12-13T08:20:13.121Z,2.50
2018-12-13T08:22:40.071Z,2.60
2018-12-13T08:25:07.029Z,2.70
2018-12-13T08:27:33.993Z,2.90
2018-12-13T08:32:35.972Z,4.50
2018-12-13T08:35:03.080Z,5.50
2018-12-13T08:37:30.391Z,6.10
2018-12-13T08:39:57.360Z,6.40
2018-12-13T08:42:24.356Z,6.10
2018-12-13T08:44:51.251Z,5.80
2018-12-13T08:47:18.245Z,5.70
2018-12-13T08:49:45.196Z,5.60
2018-12-13T08:52:12.143Z,5.70
2018-12-13T08:54:39.135Z,5.30
2018-12-13T08:57:06.108Z,4.90
2018-12-13T08:59:33.058Z,4.60
2018-12-13T09:02:00.037Z,4.30
2018-12-13T09:04:27.016Z,4.00
2018-12-13T09:06:54.074Z,3.80
2018-12-13T09:09:21.052Z,3.90
2018-12-13T09:11:48.027Z,3.80
2018-12-13T09:14:16.822Z,3.70
2018-12-13T09:16:43.789Z,3.60
2018-12-13T09:19:10.742Z,3.40
2018-12-13T09:21:37.710Z,3.20
2018-12-13T09:24:04.666Z,3.30
2018-12-13T09:26:31.627Z,3.10
2018-12-13T09:28:58.627Z,3.20
2018-12-13T09:31:25.600Z,3.00
2018-12-13T09:33:52.536Z,2.80
2018-12-13T09:36:19.513Z,2.90
2018-12-13T09:38:46.780Z,3.50
2018-12-13T09:41:13.727Z,2.90
2018-12-13T09:43:40.740Z,2.80
2018-12-13T09:46:07.707Z,2.90
2018-12-13T09:48:34.727Z,2.80
2018-12-13T09:51:01.722Z,3.10
2018-12-13T09:53:28.684Z,3.10
2018-12-13T09:55:55.668Z,3.00
2018-12-13T09:58:22.605Z,3.00
2018-12-13T10:00:49.580Z,3.10
2018-12-13T10:03:16.512Z,3.00
2018-12-13T10:05:43.546Z,3.20
2018-12-13T10:08:10.517Z,3.20
2018-12-13T10:10:37.510Z,3.20
2018-12-13T10:13:04.470Z,3.40
2018-12-13T10:15:32.124Z,3.30
2018-12-13T10:17:58.420Z,3.30
2018-12-13T10:20:25.362Z,3.40
2018-12-13T10:22:52.349Z,3.30
2018-12-13T10:25:19.375Z,3.20
2018-12-13T10:27:46.325Z,3.20
2018-12-13T10:30:13.293Z,3.20
2018-12-13T10:32:40.336Z,3.30
2018-12-13T10:35:11.279Z,3.40
2018-12-13T10:37:34.193Z,3.50
2018-12-13T10:40:01.462Z,3.50
2018-12-13T10:42:28.425Z,3.60
2018-12-13T10:44:55.480Z,3.60
2018-12-13T10:47:22.499Z,3.60
2018-12-13T10:49:49.440Z,3.60
2018-12-13T10:52:16.413Z,3.40
2018-12-13T10:54:43.354Z,3.40
2018-12-13T10:57:10.327Z,3.30
2018-12-13T10:59:37.303Z,3.10
2018-12-13T11:02:23.857Z,3.00
2018-12-13T11:04:50.879Z,3.10
2018-12-13T11:07:17.831Z,3.10
2018-12-13T11:09:44.843Z,3.00
2018-12-13T11:12:11.840Z,3.10
2018-12-13T11:14:38.997Z,3.00
2018-12-13T11:17:05.973Z,2.90
2018-12-13T11:19:33.072Z,3.00
2018-12-13T11:22:01.597Z,2.90
2018-12-13T11:24:28.611Z,3.80
2018-12-13T11:27:17.495Z,2.90
2018-12-13T11:29:56.190Z,2.80
2018-12-13T11:32:23.517Z,2.80
2018-12-13T11:34:50.485Z,2.80
2018-12-13T11:37:17.439Z,2.80
2018-12-13T11:39:44.428Z,2.70
2018-12-13T11:42:11.731Z,2.30
2018-12-13T11:44:38.761Z,2.70
2018-12-13T11:47:05.763Z,2.70
2018-12-13T11:49:32.718Z,2.70
2018-12-13T11:51:59.667Z,2.60
2018-12-13T11:54:39.003Z,2.70
2018-12-13T11:57:05.984Z,2.70
2018-12-13T11:59:32.929Z,2.70
2018-12-13T12:01:59.971Z,2.70
2018-12-13T12:04:26.937Z,2.70
2018-12-13T12:06:54.076Z,2.70
2018-12-13T12:09:21.100Z,2.50
2018-12-13T12:11:48.746Z,2.70
2018-12-13T12:14:15.744Z,2.80
2018-12-13T12:16:42.787Z,2.70
2018-12-13T12:19:09.757Z,2.70
2018-12-13T12:21:36.708Z,2.60
2018-12-13T12:24:03.727Z,2.50
2018-12-13T12:26:30.699Z,2.50
2018-12-13T12:28:57.656Z,2.40
2018-12-13T12:31:24.644Z,2.40
2018-12-13T12:33:51.628Z,2.50
2018-12-13T12:36:18.561Z,2.50
2018-12-13T12:38:45.636Z,2.40
2018-12-13T12:41:12.585Z,2.40
2018-12-13T12:43:39.858Z,2.60
2018-12-13T12:46:06.807Z,2.40
2018-12-13T12:48:33.756Z,2.30
2018-12-13T12:51:00.724Z,2.30
2018-12-13T12:53:27.798Z,2.40
2018-12-13T12:55:54.761Z,2.50
2018-12-13T12:58:21.701Z,2.50
2018-12-13T13:00:48.724Z,2.40
2018-12-13T13:03:15.654Z,2.40
2018-12-13T13:05:42.596Z,2.40
2018-12-13T13:08:09.572Z,2.30
2018-12-13T13:10:36.524Z,2.20
2018-12-13T13:13:03.471Z,2.20
2018-12-13T13:15:30.427Z,2.20
2018-12-13T13:17:57.364Z,2.10
2018-12-13T13:20:24.304Z,2.20
2018-12-13T13:22:51.275Z,2.30
2018-12-13T13:25:18.221Z,2.30
2018-12-13T13:27:45.242Z,2.30
2018-12-13T13:30:12.256Z,2.10
2018-12-13T13:32:39.201Z,2.20
2018-12-13T13:35:06.159Z,2.10
2018-12-13T13:37:33.165Z,2.10
2018-12-13T13:40:00.152Z,2.00
2018-12-13T13:42:27.125Z,2.00
2018-12-13T13:45:00.933Z,2.00
2018-12-13T13:47:27.872Z,1.90
2018-12-13T13:49:54.858Z,1.90
2018-12-13T13:52:21.869Z,1.90
2018-12-13T13:54:48.823Z,2.00
2018-12-13T13:57:15.769Z,2.10
2018-12-13T13:59:42.765Z,2.00
2018-12-13T14:02:09.721Z,1.90
2018-12-13T14:04:36.672Z,2.00
2018-12-13T14:07:03.676Z,2.10
2018-12-13T14:09:30.690Z,2.00
2018-12-13T14:11:57.665Z,2.00
2018-12-13T14:14:24.772Z,2.10
2018-12-13T14:16:51.717Z,2.20
2018-12-13T14:19:18.692Z,2.10
2018-12-13T14:21:45.680Z,2.20
2018-12-13T14:24:12.616Z,2.30
2018-12-13T14:26:39.568Z,2.10
2018-12-13T14:29:06.565Z,2.10
2018-12-13T14:31:34.635Z,2.10
2018-12-13T14:34:00.488Z,2.00
2018-12-13T14:36:27.544Z,2.00
2018-12-13T14:38:54.525Z,2.00
2018-12-13T14:41:21.508Z,2.00
2018-12-13T14:43:48.482Z,2.20
2018-12-13T14:46:15.796Z,2.30
2018-12-13T14:48:42.744Z,2.30
2018-12-13T14:51:09.748Z,2.30
2018-12-13T14:53:36.684Z,2.30
2018-12-13T14:56:03.687Z,2.30
2018-12-13T14:58:30.646Z,2.20
2018-12-13T15:00:57.599Z,2.30
2018-12-13T15:03:24.545Z,2.30
2018-12-13T15:05:51.511Z,2.20
2018-12-13T15:08:18.498Z,2.10
2018-12-13T15:10:45.488Z,2.10
2018-12-13T15:13:12.468Z,2.10
2018-12-13T15:15:39.427Z,2.20
2018-12-13T15:18:06.408Z,2.20
2018-12-13T15:20:33.396Z,2.20
2018-12-13T15:23:00.361Z,2.20
2018-12-13T15:25:27.313Z,2.20
2018-12-13T15:27:54.335Z,2.20
2018-12-13T15:30:21.307Z,2.20
2018-12-13T15:32:48.300Z,2.30
2018-12-13T15:35:15.275Z,2.30
2018-12-13T15:37:42.566Z,2.30
2018-12-13T15:40:09.719Z,2.40
2018-12-13T15:42:36.661Z,2.40
2018-12-13T15:45:03.848Z,2.40
2018-12-13T15:47:31.391Z,2.40
2018-12-13T15:49:58.349Z,2.40
2018-12-13T15:52:25.300Z,2.40
2018-12-13T15:54:52.260Z,2.40
2018-12-13T15:57:19.237Z,2.50
2018-12-13T15:59:46.166Z,2.50
2018-12-13T16:02:13.320Z,2.40
2018-12-13T16:04:40.296Z,2.30
2018-12-13T16:07:07.305Z,2.40
2018-12-13T16:09:34.280Z,2.40
2018-12-13T16:12:01.224Z,2.40
2018-12-13T16:14:28.219Z,2.60
2018-12-13T16:16:55.179Z,2.60
2018-12-13T16:19:22.189Z,2.60
2018-12-13T16:21:49.208Z,2.70
2018-12-13T16:24:16.106Z,2.60
2018-12-13T16:26:43.090Z,2.60
2018-12-13T16:29:10.072Z,2.60
2018-12-13T16:31:37.008Z,2.70
2018-12-13T16:34:03.971Z,2.70
2018-12-13T16:36:30.908Z,2.70
2018-12-13T16:38:57.860Z,2.70
2018-12-13T16:41:24.808Z,2.70
2018-12-13T16:43:51.792Z,2.70
2018-12-13T16:46:18.782Z,2.70
2018-12-13T16:48:46.150Z,2.80
2018-12-13T16:51:13.120Z,2.60
2018-12-13T16:53:40.065Z,2.70
2018-12-13T16:56:07.270Z,2.70
2018-12-13T16:58:34.472Z,2.70
2018-12-13T17:01:01.419Z,2.70
2018-12-13T17:03:38.219Z,2.60
2018-12-13T17:06:05.285Z,2.70
2018-12-13T17:08:32.223Z,2.70
2018-12-13T17:10:59.200Z,2.60
2018-12-13T17:13:26.156Z,2.70
2018-12-13T17:15:53.671Z,2.80
2018-12-13T17:18:21.936Z,2.70
2018-12-13T17:20:50.130Z,2.60
2018-12-13T17:23:17.065Z,2.70
2018-12-13T17:25:44.036Z,2.70
2018-12-13T17:28:10.983Z,2.80
2018-12-13T17:30:37.940Z,2.70
2018-12-13T17:33:04.930Z,2.70
2018-12-13T17:35:31.975Z,2.70
2018-12-13T17:37:58.920Z,2.70
2018-12-13T17:40:25.908Z,2.60
2018-12-13T17:42:52.864Z,2.60
2018-12-13T17:45:19.853Z,2.50
2018-12-13T17:47:46.837Z,2.60
2018-12-13T17:50:14.379Z,2.60
2018-12-13T17:52:41.353Z,2.60
2018-12-13T17:55:08.336Z,2.70
2018-12-13T17:57:35.313Z,2.70
2018-12-13T18:00:02.337Z,2.60
2018-12-13T18:02:29.330Z,2.60
2018-12-13T18:04:56.309Z,2.70
2018-12-13T18:07:23.448Z,2.60
2018-12-13T18:09:50.716Z,2.70
2018-12-13T18:12:17.909Z,2.70
2018-12-13T18:14:45.200Z,2.70
2018-12-13T18:17:12.445Z,2.60
2018-12-13T18:19:39.384Z,2.60
2018-12-13T18:22:06.342Z,2.60
2018-12-13T18:24:33.321Z,2.70
2018-12-13T18:27:00.396Z,2.70
2018-12-13T18:29:27.351Z,2.60
2018-12-13T18:31:54.409Z,2.60
2018-12-13T18:34:21.426Z,2.70
2018-12-13T18:36:48.446Z,2.70
2018-12-13T18:39:15.463Z,2.70
2018-12-13T18:41:42.904Z,2.70
2018-12-13T18:44:09.840Z,2.40
2018-12-13T18:46:36.976Z,2.60
2018-12-13T18:49:06.643Z,2.60
2018-12-13T18:51:33.436Z,2.60
2018-12-13T18:54:00.599Z,2.50
2018-12-13T18:56:27.557Z,2.50
2018-12-13T18:58:54.505Z,2.50
2018-12-13T19:01:21.469Z,2.50
2018-12-13T19:03:48.577Z,2.60
2018-12-13T19:06:15.531Z,2.60
2018-12-13T19:08:42.532Z,2.60
2018-12-13T19:11:09.477Z,2.60
2018-12-13T19:13:36.424Z,2.60
2018-12-13T19:16:03.391Z,2.60
2018-12-13T19:18:30.333Z,2.50
2018-12-13T19:20:57.309Z,2.50
2018-12-13T19:23:24.302Z,2.50
2018-12-13T19:25:51.313Z,2.50
2018-12-13T19:28:18.312Z,2.40
2018-12-13T19:30:45.693Z,2.50
2018-12-13T19:33:12.666Z,2.50
2018-12-13T19:35:39.601Z,2.50
2018-12-13T19:38:06.753Z,2.60
2018-12-13T19:40:33.737Z,2.60
2018-12-13T19:43:00.692Z,2.60
2018-12-13T19:45:27.693Z,2.60
2018-12-13T19:47:54.654Z,2.50
2018-12-13T19:50:21.612Z,2.60
2018-12-13T19:52:49.153Z,2.50
2018-12-13T19:55:16.125Z,2.50
2018-12-13T19:57:43.113Z,2.50
2018-12-13T20:00:10.073Z,2.60
2018-12-13T20:02:37.026Z,2.50
2018-12-13T20:05:04.074Z,2.50
2018-12-13T20:07:31.056Z,2.50
2018-12-13T20:09:58.015Z,2.50
2018-12-13T20:12:24.983Z,2.50
2018-12-13T20:14:51.956Z,2.50
2018-12-13T20:17:18.908Z,2.50
2018-12-13T20:19:45.876Z,2.50
2018-12-13T20:22:12.856Z,2.50
2018-12-13T20:24:39.828Z,2.50
2018-12-13T20:27:06.773Z,2.40
2018-12-13T20:29:33.733Z,2.50
2018-12-13T20:32:00.693Z,2.50
2018-12-13T20:34:27.632Z,3.00
2018-12-13T20:36:54.615Z,2.40
2018-12-13T20:39:21.580Z,2.50
2018-12-13T20:41:48.585Z,2.30
2018-12-13T20:44:15.576Z,2.50
2018-12-13T20:46:42.583Z,2.40
2018-12-13T20:49:09.552Z,2.50
2018-12-13T20:51:36.508Z,2.50
2018-12-13T20:54:03.700Z,2.40
2018-12-13T20:56:38.176Z,2.40
2018-12-13T20:59:05.128Z,2.40
2018-12-13T21:01:32.738Z,2.40
2018-12-13T21:04:01.607Z,2.40
2018-12-13T21:06:37.809Z,2.40
2018-12-13T21:09:08.941Z,2.90
2018-12-13T21:11:36.010Z,2.40
2018-12-13T21:14:03.019Z,2.20
2018-12-13T21:16:30.045Z,2.50
2018-12-13T21:18:56.984Z,2.50
2018-12-13T21:21:23.924Z,2.40
2018-12-13T21:23:50.947Z,2.50
2018-12-13T21:26:17.894Z,2.50
2018-12-13T21:28:44.840Z,2.50
2018-12-13T21:31:11.800Z,2.50
2018-12-13T21:33:38.861Z,2.50
2018-12-13T21:36:05.817Z,2.50
2018-12-13T21:38:32.798Z,2.60
2018-12-13T21:40:59.802Z,2.80
2018-12-13T21:43:26.795Z,2.60
2018-12-13T21:45:53.783Z,2.60
2018-12-13T21:48:20.808Z,2.50
2018-12-13T21:50:47.787Z,2.60
2018-12-13T21:53:14.845Z,2.60
2018-12-13T21:55:42.068Z,2.50
2018-12-13T21:58:09.066Z,2.40
2018-12-13T22:00:36.018Z,2.40
2018-12-13T22:03:03.056Z,2.30
2018-12-13T22:05:30.050Z,2.40
2018-12-13T22:07:57.055Z,2.40
2018-12-13T22:10:24.029Z,2.40
2018-12-13T22:12:51.084Z,2.40
2018-12-13T22:15:18.075Z,2.40
2018-12-13T22:17:45.055Z,2.50
2018-12-13T22:20:11.994Z,2.40
2018-12-13T22:22:38.965Z,2.40
2018-12-13T22:25:06.785Z,2.40
2018-12-13T22:27:33.956Z,2.40
2018-12-13T22:30:00.997Z,2.40
2018-12-13T22:32:27.973Z,2.40
2018-12-13T22:34:54.948Z,2.30
2018-12-13T22:37:21.945Z,2.40
2018-12-13T22:39:49.009Z,2.40
2018-12-13T22:42:15.953Z,2.30
2018-12-13T22:44:42.945Z,2.90
2018-12-13T22:47:09.880Z,2.50
2018-12-13T22:49:36.856Z,2.20
2018-12-13T22:52:03.828Z,2.30
2018-12-13T22:54:30.792Z,2.20
2018-12-13T22:56:58.117Z,2.30
2018-12-13T22:59:25.155Z,2.30
2018-12-13T23:01:52.163Z,2.30
2018-12-13T23:04:19.162Z,2.30
2018-12-13T23:06:46.238Z,2.30
2018-12-13T23:09:13.311Z,2.30
2018-12-13T23:11:40.321Z,2.30
2018-12-13T23:14:07.326Z,2.30
2018-12-13T23:16:34.279Z,2.40
2018-12-13T23:19:01.235Z,2.30
2018-12-13T23:21:28.232Z,2.30
2018-12-13T23:23:55.191Z,2.30
2018-12-13T23:26:22.153Z,2.30
2018-12-13T23:28:49.124Z,2.30
2018-12-13T23:31:16.085Z,2.30
2018-12-13T23:33:43.048Z,2.40
2018-12-13T23:36:10.024Z,2.40
2018-12-13T23:38:36.974Z,2.50
2018-12-13T23:41:03.955Z,2.20
2018-12-13T23:43:30.916Z,2.30
2018-12-13T23:45:57.881Z,2.30
2018-12-13T23:48:24.847Z,2.10
2018-12-13T23:50:51.812Z,2.10
2018-12-13T23:53:18.805Z,2.10
2018-12-13T23:55:45.744Z,2.10
2018-12-13T23:58:12.999Z,2.20
